Time;durP1;ratioP1;P1;durP2;ratioP2;P2;SDS_P1;SDS_P2;PMS_P1;PMS_P2;Temp;Humidity;BMP_temperature;BMP_pressure;BME280_temperature;BME280_humidity;BME280_pressure;Samples;Min_cycle;Max_cycle;Signal;HPM_P1;HPM_P2
2021/12/24 00:00:41;;;;;;;156.43;47.92;;;;;;;;;;4909911;28;20047;-85
2021/12/24 00:03:10;;;;;;;167.25;47.30;;;;;;;;;;4891900;28;20044;-84
2021/12/24 00:05:36;;;;;;;174.82;49.65;;;;;;;;;;4900472;29;20402;-85
2021/12/24 00:08:03;;;;;;;190.73;51.78;;;;;;;;;;4905373;28;20039;-85
2021/12/24 00:10:31;;;;;;;187.45;50.95;;;;;;;;;;4916057;28;20052;-85
2021/12/24 00:13:01;;;;;;;142.82;45.42;;;;;;;;;;4927637;28;20048;-85
2021/12/24 00:37:16;;;;;;;155.32;48.25;;;;;;;;;;4927925;28;20447;-85
2021/12/24 00:39:51;;;;;;;160.10;45.85;;;;;;;;;;4921518;29;20454;-86
2021/12/24 00:42:17;;;;;;;175.90;47.53;;;;;;;;;;4895035;28;20058;-85
2021/12/24 00:44:43;;;;;;;148.20;45.13;;;;;;;;;;4918765;29;20055;-85
2021/12/24 00:47:09;;;;;;;165.55;46.15;;;;;;;;;;4929668;28;20043;-85
2021/12/24 00:49:35;;;;;;;152.35;45.60;;;;;;;;;;4929936;28;20047;-85
2021/12/24 00:52:20;;;;;;;138.95;44.45;;;;;;;;;;4909588;29;20078;-85
2021/12/24 00:55:03;;;;;;;174.48;45.30;;;;;;;;;;4926655;28;20055;-85
2021/12/24 00:57:35;;;;;;;128.63;41.80;;;;;;;;;;4911646;28;20073;-85
2021/12/24 01:00:01;;;;;;;130.20;41.25;;;;;;;;;;4942589;28;20051;-85
2021/12/24 01:02:27;;;;;;;132.82;40.75;;;;;;;;;;4910918;28;20052;-85
2021/12/24 01:04:54;;;;;;;106.50;36.72;;;;;;;;;;4929000;28;20059;-85
2021/12/24 01:07:20;;;;;;;121.28;38.53;;;;;;;;;;4902995;28;20058;-84
2021/12/24 01:09:46;;;;;;;97.30;35.70;;;;;;;;;;4929531;28;20048;-85
2021/12/24 01:12:12;;;;;;;110.68;35.83;;;;;;;;;;4929140;28;20058;-85
2021/12/24 01:14:38;;;;;;;89.15;33.63;;;;;;;;;;4928496;28;20048;-85
2021/12/24 01:19:34;;;;;;;92.60;32.30;;;;;;;;;;4916424;28;20060;-85
2021/12/24 01:24:59;;;;;;;89.70;32.45;;;;;;;;;;4935143;28;20043;-85
2021/12/24 01:37:47;;;;;;;87.32;30.13;;;;;;;;;;4930687;28;20161;-85
2021/12/24 01:38:21;;;;;;;84.45;28.60;;;;;;;;;;4918935;28;21184;-85
2021/12/24 01:41:18;;;;;;;70.40;25.90;;;;;;;;;;4935618;28;20054;-85
2021/12/24 01:43:37;;;;;;;65.18;26.85;;;;;;;;;;4919560;28;20047;-85
2021/12/24 01:46:03;;;;;;;55.28;23.15;;;;;;;;;;4929940;28;20086;-85
2021/12/24 01:48:29;;;;;;;63.55;25.13;;;;;;;;;;4932483;28;20043;-85
2021/12/24 01:50:55;;;;;;;63.45;25.10;;;;;;;;;;4940688;28;20474;-85
2021/12/24 01:53:22;;;;;;;58.90;25.17;;;;;;;;;;4923625;28;20051;-84
2021/12/24 01:55:50;;;;;;;67.63;25.13;;;;;;;;;;4932403;28;20050;-85
2021/12/24 01:58:23;;;;;;;58.60;25.10;;;;;;;;;;4916744;28;20054;-84
2021/12/24 02:00:50;;;;;;;64.68;25.17;;;;;;;;;;4913803;28;20035;-84
2021/12/24 02:03:16;;;;;;;55.42;23.85;;;;;;;;;;4912066;28;20484;-85
2021/12/24 02:05:42;;;;;;;59.38;23.58;;;;;;;;;;4915963;28;20048;-84
2021/12/24 02:08:09;;;;;;;55.40;22.58;;;;;;;;;;4907847;28;20050;-85
2021/12/24 02:10:35;;;;;;;49.53;21.85;;;;;;;;;;4930008;28;20131;-85
2021/12/24 02:13:01;;;;;;;55.25;22.52;;;;;;;;;;4929110;28;20058;-85
2021/12/24 02:18:36;;;;;;;45.80;21.27;;;;;;;;;;4952287;28;20094;-84
2021/12/24 02:28:53;;;;;;;52.50;21.83;;;;;;;;;;4919320;28;20055;-85
2021/12/24 02:31:20;;;;;;;49.95;21.20;;;;;;;;;;4930115;28;20157;-85
2021/12/24 02:33:46;;;;;;;48.40;22.17;;;;;;;;;;4929195;28;20047;-85
2021/12/24 02:36:12;;;;;;;57.97;23.10;;;;;;;;;;4911637;28;20120;-85
2021/12/24 02:38:38;;;;;;;59.33;22.38;;;;;;;;;;4915403;29;20410;-85
2021/12/24 02:41:05;;;;;;;51.92;21.48;;;;;;;;;;4938611;28;20075;-85
2021/12/24 02:43:31;;;;;;;50.88;21.52;;;;;;;;;;4895335;28;20047;-85
2021/12/24 02:46:06;;;;;;;47.20;19.88;;;;;;;;;;4929551;28;20130;-86
2021/12/24 02:53:58;;;;;;;42.58;19.27;;;;;;;;;;4915631;28;20052;-85
2021/12/24 02:56:28;;;;;;;39.55;18.38;;;;;;;;;;4913606;28;20063;-85
2021/12/24 02:58:54;;;;;;;45.88;18.20;;;;;;;;;;4916075;28;20051;-85
2021/12/24 03:01:21;;;;;;;35.92;17.10;;;;;;;;;;4924373;28;20051;-85
2021/12/24 03:03:51;;;;;;;36.95;17.23;;;;;;;;;;4924142;28;20047;-86
2021/12/24 03:06:17;;;;;;;39.60;17.23;;;;;;;;;;4931372;28;20062;-85
2021/12/24 03:08:43;;;;;;;34.83;16.63;;;;;;;;;;4936099;28;20048;-85
2021/12/24 03:11:10;;;;;;;38.92;17.58;;;;;;;;;;4927657;28;20043;-85
2021/12/24 03:13:36;;;;;;;36.40;17.27;;;;;;;;;;4935721;28;20073;-86
2021/12/24 03:16:02;;;;;;;38.75;16.95;;;;;;;;;;4934355;28;20063;-85
2021/12/24 03:18:31;;;;;;;29.38;15.15;;;;;;;;;;4917658;28;20423;-85
2021/12/24 03:21:21;;;;;;;32.85;15.90;;;;;;;;;;4922475;28;20092;-85
2021/12/24 03:26:28;;;;;;;26.95;13.65;;;;;;;;;;4930892;28;20051;-85
2021/12/24 03:28:54;;;;;;;30.10;14.50;;;;;;;;;;4916943;28;20548;-85
2021/12/24 03:31:20;;;;;;;27.85;14.48;;;;;;;;;;4916094;28;20075;-85
2021/12/24 03:33:46;;;;;;;37.92;16.65;;;;;;;;;;4933932;28;20043;-85
2021/12/24 03:36:13;;;;;;;41.28;17.40;;;;;;;;;;4930686;28;20059;-85
2021/12/24 03:38:39;;;;;;;52.05;19.95;;;;;;;;;;4934332;28;20043;-85
2021/12/24 03:41:05;;;;;;;52.70;18.90;;;;;;;;;;4918256;28;21216;-85
2021/12/24 03:43:32;;;;;;;59.22;20.88;;;;;;;;;;4911888;28;20054;-85
2021/12/24 03:46:02;;;;;;;64.18;21.98;;;;;;;;;;4929591;28;20044;-85
2021/12/24 03:48:45;;;;;;;66.25;23.17;;;;;;;;;;4933971;28;20129;-85
2021/12/24 03:56:24;;;;;;;75.07;24.38;;;;;;;;;;4918389;28;20375;-85
2021/12/24 03:58:50;;;;;;;80.60;26.30;;;;;;;;;;4914421;28;20102;-85
2021/12/24 04:01:16;;;;;;;81.35;27.60;;;;;;;;;;4925288;28;20060;-85
2021/12/24 04:03:42;;;;;;;78.57;25.80;;;;;;;;;;4930203;28;20094;-85
2021/12/24 04:06:08;;;;;;;92.35;28.77;;;;;;;;;;4940552;28;20044;-85
2021/12/24 04:08:35;;;;;;;96.68;29.45;;;;;;;;;;4903896;29;20043;-85
2021/12/24 04:11:01;;;;;;;91.28;28.85;;;;;;;;;;4918854;28;20052;-85
2021/12/24 04:13:27;;;;;;;96.32;29.60;;;;;;;;;;4928515;28;22914;-85
2021/12/24 04:15:53;;;;;;;83.57;27.73;;;;;;;;;;4904201;28;20058;-85
2021/12/24 04:18:34;;;;;;;74.90;25.67;;;;;;;;;;4913176;28;20418;-85
2021/12/24 04:26:30;;;;;;;89.03;28.00;;;;;;;;;;4932911;28;20126;-84
2021/12/24 04:28:57;;;;;;;70.30;25.05;;;;;;;;;;4916634;29;20095;-85
2021/12/24 04:31:30;;;;;;;65.57;24.17;;;;;;;;;;4933174;28;20122;-85
2021/12/24 04:34:00;;;;;;;69.63;25.08;;;;;;;;;;4927602;28;20475;-86
2021/12/24 04:36:51;;;;;;;75.57;26.70;;;;;;;;;;4929050;28;20858;-84
2021/12/24 05:01:38;;;;;;;97.13;33.22;;;;;;;;;;4924440;28;20052;-85
2021/12/24 05:04:05;;;;;;;90.55;33.30;;;;;;;;;;4905886;28;20634;-87
2021/12/24 05:06:37;;;;;;;103.90;34.97;;;;;;;;;;4929092;28;20055;-87
2021/12/24 05:09:12;;;;;;;88.93;32.40;;;;;;;;;;4927041;28;20055;-86
2021/12/24 05:11:38;;;;;;;96.85;35.13;;;;;;;;;;4927630;28;20418;-87
2021/12/24 05:14:10;;;;;;;93.65;34.67;;;;;;;;;;4918750;29;20410;-88
2021/12/24 05:16:49;;;;;;;76.30;30.88;;;;;;;;;;4912028;28;20058;-89
2021/12/24 05:22:03;;;;;;;73.57;32.20;;;;;;;;;;4918691;28;20043;-86
2021/12/24 05:24:31;;;;;;;78.47;31.90;;;;;;;;;;4930335;28;20232;-86
2021/12/24 05:27:00;;;;;;;93.57;33.10;;;;;;;;;;4936582;28;20051;-86
2021/12/24 05:29:27;;;;;;;79.03;31.60;;;;;;;;;;4902450;28;20436;-86
2021/12/24 05:31:53;;;;;;;69.15;28.60;;;;;;;;;;4921442;29;20079;-86
2021/12/24 05:34:19;;;;;;;76.90;32.45;;;;;;;;;;4919337;28;20043;-86
2021/12/24 05:36:46;;;;;;;72.82;30.98;;;;;;;;;;4906052;28;20098;-86
2021/12/24 05:39:12;;;;;;;67.28;30.20;;;;;;;;;;4937755;28;20046;-84
2021/12/24 05:41:39;;;;;;;73.40;30.73;;;;;;;;;;4931138;28;20039;-86
2021/12/24 05:44:08;;;;;;;70.30;29.65;;;;;;;;;;4936933;28;20524;-86
2021/12/24 05:46:34;;;;;;;72.53;30.95;;;;;;;;;;4952053;28;20047;-86
2021/12/24 05:49:00;;;;;;;67.70;28.30;;;;;;;;;;4919977;28;20047;-86
2021/12/24 05:51:26;;;;;;;69.43;30.00;;;;;;;;;;4920655;28;20194;-86
2021/12/24 05:53:53;;;;;;;65.00;29.77;;;;;;;;;;4950533;28;20518;-85
2021/12/24 05:56:19;;;;;;;66.03;30.15;;;;;;;;;;4921359;28;20482;-85
2021/12/24 05:58:45;;;;;;;70.97;30.90;;;;;;;;;;4941625;28;20138;-85
2021/12/24 06:01:12;;;;;;;70.78;30.20;;;;;;;;;;4898638;28;20487;-86
2021/12/24 06:03:39;;;;;;;66.72;31.15;;;;;;;;;;4923133;28;20055;-86
2021/12/24 06:06:05;;;;;;;59.20;29.27;;;;;;;;;;4922215;28;20398;-86
2021/12/24 06:08:32;;;;;;;57.85;28.50;;;;;;;;;;4923343;28;20097;-85
2021/12/24 06:10:58;;;;;;;72.70;28.70;;;;;;;;;;4918241;28;20054;-86
2021/12/24 06:13:29;;;;;;;65.13;29.42;;;;;;;;;;4921754;28;20052;-86
2021/12/24 06:15:56;;;;;;;65.70;28.42;;;;;;;;;;4924647;29;20059;-86
2021/12/24 06:18:28;;;;;;;65.20;27.95;;;;;;;;;;4919207;28;20050;-86
2021/12/24 06:20:56;;;;;;;58.72;26.75;;;;;;;;;;4947474;28;20130;-86
2021/12/24 06:23:23;;;;;;;65.97;26.52;;;;;;;;;;4915678;28;20047;-86
2021/12/24 06:25:51;;;;;;;53.00;24.77;;;;;;;;;;4918950;29;20114;-86
2021/12/24 06:28:18;;;;;;;52.13;23.52;;;;;;;;;;4905324;28;20063;-86
2021/12/24 06:30:45;;;;;;;53.35;23.30;;;;;;;;;;4941102;28;20044;-85
2021/12/24 06:33:12;;;;;;;49.85;24.23;;;;;;;;;;4916388;28;20763;-86
2021/12/24 06:35:40;;;;;;;51.20;21.90;;;;;;;;;;4886683;28;20047;-86
2021/12/24 06:38:09;;;;;;;46.42;20.00;;;;;;;;;;4911746;28;20070;-86
2021/12/24 06:40:38;;;;;;;43.50;19.63;;;;;;;;;;4919955;28;20074;-86
2021/12/24 06:43:04;;;;;;;35.75;18.05;;;;;;;;;;4919058;29;20134;-87
2021/12/24 06:45:32;;;;;;;42.65;18.65;;;;;;;;;;4906793;28;20090;-87
2021/12/24 06:47:59;;;;;;;38.70;18.75;;;;;;;;;;4911848;28;20058;-87
2021/12/24 06:50:25;;;;;;;47.47;19.75;;;;;;;;;;4919958;28;20103;-87
2021/12/24 06:52:51;;;;;;;49.53;19.65;;;;;;;;;;4922710;28;20078;-86
2021/12/24 06:55:17;;;;;;;40.70;18.92;;;;;;;;;;4909902;28;20130;-86
2021/12/24 06:57:44;;;;;;;44.97;18.58;;;;;;;;;;4908848;28;20048;-86
2021/12/24 07:00:11;;;;;;;40.40;18.70;;;;;;;;;;4939014;28;20044;-86
2021/12/24 07:02:37;;;;;;;44.85;18.73;;;;;;;;;;4924365;28;20043;-87
2021/12/24 07:05:09;;;;;;;44.13;17.90;;;;;;;;;;4942789;28;20070;-87
2021/12/24 07:07:38;;;;;;;38.88;17.30;;;;;;;;;;4908655;28;20105;-83
2021/12/24 07:10:05;;;;;;;38.63;17.27;;;;;;;;;;4911551;28;20053;-83
2021/12/24 07:12:31;;;;;;;48.40;17.58;;;;;;;;;;4916522;28;20138;-83
2021/12/24 07:14:57;;;;;;;42.97;18.60;;;;;;;;;;4922044;28;20047;-83
2021/12/24 07:17:23;;;;;;;40.15;17.83;;;;;;;;;;4910182;28;20040;-83
2021/12/24 07:19:49;;;;;;;41.75;16.90;;;;;;;;;;4915742;29;20082;-83
2021/12/24 07:22:18;;;;;;;43.30;17.50;;;;;;;;;;4916103;28;20055;-83
2021/12/24 07:24:44;;;;;;;34.75;16.90;;;;;;;;;;4938751;28;20414;-83
2021/12/24 07:27:10;;;;;;;37.38;16.63;;;;;;;;;;4934262;28;20083;-87
2021/12/24 07:29:37;;;;;;;38.25;16.38;;;;;;;;;;4920536;28;20109;-86
2021/12/24 07:32:03;;;;;;;45.00;17.33;;;;;;;;;;4928783;28;20051;-86
2021/12/24 07:34:30;;;;;;;42.92;17.50;;;;;;;;;;4920314;28;20102;-86
2021/12/24 07:36:56;;;;;;;37.42;16.40;;;;;;;;;;4924958;28;20039;-86
2021/12/24 07:39:31;;;;;;;33.03;16.60;;;;;;;;;;4908270;28;20058;-86
2021/12/24 07:41:57;;;;;;;38.88;16.75;;;;;;;;;;4916622;28;20048;-85
2021/12/24 07:44:28;;;;;;;30.70;15.45;;;;;;;;;;4902656;28;21023;-86
2021/12/24 07:46:58;;;;;;;48.80;16.33;;;;;;;;;;4909644;28;20127;-85
2021/12/24 07:54:29;;;;;;;;;;;;;;;;;;4916962;28;20043;-85
2021/12/24 07:56:55;;;;;;;34.53;15.88;;;;;;;;;;4938845;28;19918;-84
2021/12/24 07:59:22;;;;;;;47.58;15.93;;;;;;;;;;4932700;28;20039;-83
2021/12/24 08:01:48;;;;;;;40.17;16.08;;;;;;;;;;4910246;28;20047;-83
2021/12/24 08:04:14;;;;;;;34.80;15.00;;;;;;;;;;4933508;28;20047;-84
2021/12/24 08:06:40;;;;;;;33.28;15.45;;;;;;;;;;4926396;28;20043;-84
2021/12/24 08:09:07;;;;;;;36.70;15.05;;;;;;;;;;4936454;28;20047;-83
2021/12/24 08:11:36;;;;;;;36.72;14.60;;;;;;;;;;4954632;28;20057;-83
2021/12/24 08:14:05;;;;;;;34.90;13.00;;;;;;;;;;4934666;28;20053;-86
2021/12/24 08:16:40;;;;;;;27.95;13.00;;;;;;;;;;4926365;28;20379;-86
2021/12/24 08:19:07;;;;;;;33.63;13.27;;;;;;;;;;4909500;29;20062;-86
2021/12/24 08:21:33;;;;;;;34.75;12.82;;;;;;;;;;4912825;28;20094;-86
2021/12/24 08:23:59;;;;;;;29.85;12.60;;;;;;;;;;4912467;28;20058;-85
2021/12/24 08:26:26;;;;;;;26.55;11.65;;;;;;;;;;4926259;28;20106;-86
2021/12/24 08:28:54;;;;;;;35.95;12.57;;;;;;;;;;4947606;28;20138;-87
2021/12/24 08:31:20;;;;;;;29.40;12.23;;;;;;;;;;4917072;28;20051;-86
2021/12/24 08:33:46;;;;;;;34.50;12.27;;;;;;;;;;4918872;28;20043;-86
2021/12/24 08:36:13;;;;;;;27.45;12.13;;;;;;;;;;4917302;28;20060;-83
2021/12/24 08:38:39;;;;;;;31.35;11.90;;;;;;;;;;4917866;28;20511;-87
2021/12/24 08:41:06;;;;;;;34.08;12.23;;;;;;;;;;4922322;28;20043;-84
2021/12/24 08:43:33;;;;;;;27.23;12.02;;;;;;;;;;4904518;28;20078;-83
2021/12/24 08:45:59;;;;;;;33.97;11.40;;;;;;;;;;4959895;28;20077;-84
2021/12/24 08:48:25;;;;;;;35.08;12.35;;;;;;;;;;4918260;28;20047;-83
2021/12/24 08:50:52;;;;;;;39.38;13.38;;;;;;;;;;4934700;28;20064;-83
2021/12/24 08:53:18;;;;;;;34.05;12.90;;;;;;;;;;4931000;28;20070;-83
2021/12/24 08:55:44;;;;;;;35.65;12.77;;;;;;;;;;4948022;28;20047;-83
2021/12/24 08:58:10;;;;;;;41.17;13.13;;;;;;;;;;4924134;28;20404;-82
2021/12/24 09:00:36;;;;;;;37.30;13.00;;;;;;;;;;4928469;28;20473;-86
2021/12/24 09:03:02;;;;;;;42.53;13.02;;;;;;;;;;4920289;28;20047;-84
2021/12/24 09:05:29;;;;;;;38.95;12.95;;;;;;;;;;4904810;28;21769;-84
2021/12/24 09:07:55;;;;;;;35.72;12.50;;;;;;;;;;4921715;28;20050;-82
2021/12/24 09:10:21;;;;;;;34.42;12.63;;;;;;;;;;4935366;28;20398;-84
2021/12/24 09:12:48;;;;;;;31.75;12.88;;;;;;;;;;4922083;28;20055;-83
2021/12/24 09:15:17;;;;;;;41.55;12.98;;;;;;;;;;4933439;28;20051;-85
2021/12/24 09:17:47;;;;;;;39.65;12.27;;;;;;;;;;4924171;28;20058;-86
2021/12/24 09:20:42;;;;;;;30.10;12.30;;;;;;;;;;4920316;28;20518;-85
2021/12/24 09:23:09;;;;;;;26.05;12.23;;;;;;;;;;4933893;28;20138;-85
2021/12/24 09:25:38;;;;;;;37.50;12.63;;;;;;;;;;4937350;28;20084;-86
2021/12/24 09:28:04;;;;;;;38.95;13.07;;;;;;;;;;4939467;28;20046;-85
2021/12/24 09:30:41;;;;;;;31.05;11.60;;;;;;;;;;4948774;28;20059;-85
2021/12/24 09:33:15;;;;;;;28.25;11.68;;;;;;;;;;4913692;28;20055;-86
2021/12/24 09:35:41;;;;;;;29.48;11.88;;;;;;;;;;4925488;28;20406;-86
2021/12/24 09:38:13;;;;;;;42.28;12.43;;;;;;;;;;4907670;28;20047;-86
2021/12/24 09:41:10;;;;;;;31.70;11.88;;;;;;;;;;4938789;28;20050;-86
2021/12/24 09:44:03;;;;;;;;;;;;;;;;;;;;;
2021/12/24 09:49:25;;;;;;;26.70;11.52;;;;;;;;;;4925464;28;20141;-84
2021/12/24 09:52:02;;;;;;;32.78;10.48;;;;;;;;;;4936600;28;20048;-84
2021/12/24 09:54:31;;;;;;;31.85;10.52;;;;;;;;;;4915677;28;21068;-86
2021/12/24 09:56:57;;;;;;;27.33;10.63;;;;;;;;;;4914659;28;20057;-86
2021/12/24 09:59:23;;;;;;;30.25;10.88;;;;;;;;;;4901363;28;20402;-86
2021/12/24 10:01:54;;;;;;;40.28;11.50;;;;;;;;;;4905802;28;20399;-88
2021/12/24 10:04:21;;;;;;;36.40;12.05;;;;;;;;;;4900250;28;20047;-86
2021/12/24 10:06:51;;;;;;;32.25;12.07;;;;;;;;;;4925237;28;20488;-86
2021/12/24 10:09:17;;;;;;;34.17;11.00;;;;;;;;;;4933056;28;20122;-87
2021/12/24 10:11:49;;;;;;;30.30;11.18;;;;;;;;;;4942349;28;20479;-86
2021/12/24 10:14:15;;;;;;;35.63;12.48;;;;;;;;;;4906036;28;20462;-86
2021/12/24 10:16:43;;;;;;;38.75;12.50;;;;;;;;;;4931062;28;20043;-87
2021/12/24 10:19:09;;;;;;;40.30;12.55;;;;;;;;;;4924231;28;20058;-87
2021/12/24 10:21:35;;;;;;;32.10;12.30;;;;;;;;;;4925230;29;20055;-86
2021/12/24 10:24:04;;;;;;;34.70;12.20;;;;;;;;;;4917699;29;20078;-86
2021/12/24 10:26:37;;;;;;;40.88;13.00;;;;;;;;;;4940331;28;20167;-86
2021/12/24 10:29:09;;;;;;;40.33;12.10;;;;;;;;;;4945364;28;20052;-86
2021/12/24 10:31:51;;;;;;;37.03;12.60;;;;;;;;;;4924235;29;20071;-86
2021/12/24 10:34:17;;;;;;;37.40;11.98;;;;;;;;;;4955050;28;20479;-87
2021/12/24 10:36:49;;;;;;;32.22;11.95;;;;;;;;;;4937882;28;20051;-87
2021/12/24 10:39:20;;;;;;;37.13;11.45;;;;;;;;;;4951848;28;20491;-87
2021/12/24 10:41:46;;;;;;;26.13;9.05;;;;;;;;;;4938429;28;20143;-87
2021/12/24 10:44:39;;;;;;;31.17;8.98;;;;;;;;;;4906334;28;20078;-87
2021/12/24 10:47:08;;;;;;;18.80;7.07;;;;;;;;;;4927555;28;20055;-87
2021/12/24 10:54:53;;;;;;;5.85;3.47;;;;;;;;;;4926243;28;20491;-87
2021/12/24 10:57:22;;;;;;;5.25;2.35;;;;;;;;;;4909769;28;20040;-87
2021/12/24 10:59:49;;;;;;;3.88;2.90;;;;;;;;;;4948655;28;20416;-86
2021/12/24 11:02:15;;;;;;;3.78;3.38;;;;;;;;;;4941683;28;20134;-86
2021/12/24 11:04:41;;;;;;;4.85;3.30;;;;;;;;;;4923659;28;20039;-86
2021/12/24 11:07:26;;;;;;;3.50;3.08;;;;;;;;;;4934970;28;20043;-86
2021/12/24 11:10:05;;;;;;;4.15;3.00;;;;;;;;;;4921806;28;20060;-86
2021/12/24 11:12:34;;;;;;;5.70;3.70;;;;;;;;;;4947488;28;20051;-87
2021/12/24 11:15:01;;;;;;;3.25;2.80;;;;;;;;;;4902783;28;20490;-84
2021/12/24 11:17:39;;;;;;;2.38;2.17;;;;;;;;;;4927054;28;24437;-85
2021/12/24 11:21:02;;;;;;;;;;;;;;;;;;;;;
2021/12/24 11:23:28;;;;;;;2.50;2.30;;;;;;;;;;4925071;28;20051;-83
2021/12/24 11:26:18;;;;;;;3.13;2.83;;;;;;;;;;4919956;28;20066;-84
2021/12/24 11:28:46;;;;;;;3.08;2.78;;;;;;;;;;4921375;28;20054;-82
2021/12/24 11:34:12;;;;;;;3.38;3.08;;;;;;;;;;4934708;28;20127;-86
2021/12/24 11:36:38;;;;;;;3.33;2.97;;;;;;;;;;4925005;29;20154;-83
2021/12/24 11:39:15;;;;;;;4.40;3.30;;;;;;;;;;4921177;28;20525;-86
2021/12/24 11:41:41;;;;;;;4.22;3.78;;;;;;;;;;4934583;28;20083;-83
2021/12/24 11:44:26;;;;;;;4.15;3.67;;;;;;;;;;4928850;28;20058;-83
2021/12/24 11:46:53;;;;;;;4.95;4.43;;;;;;;;;;4940624;28;20059;-83
2021/12/24 11:49:22;;;;;;;4.88;4.28;;;;;;;;;;4911050;28;20102;-83
2021/12/24 11:51:49;;;;;;;4.70;4.15;;;;;;;;;;4943569;28;20126;-83
2021/12/24 11:54:15;;;;;;;5.15;4.20;;;;;;;;;;4924135;28;20461;-83
2021/12/24 11:56:48;;;;;;;5.22;4.03;;;;;;;;;;4920823;29;20060;-86
2021/12/24 11:59:18;;;;;;;4.63;4.22;;;;;;;;;;4930061;28;20044;-83
2021/12/24 12:01:49;;;;;;;4.80;4.28;;;;;;;;;;4928539;28;20488;-84
2021/12/24 12:04:32;;;;;;;4.53;4.13;;;;;;;;;;4900710;28;20094;-83
2021/12/24 12:07:30;;;;;;;4.68;4.10;;;;;;;;;;4937288;28;20043;-83
2021/12/24 12:09:59;;;;;;;4.60;3.72;;;;;;;;;;4942437;28;20395;-83
2021/12/24 12:12:44;;;;;;;4.00;3.50;;;;;;;;;;4923633;28;20728;-83
2021/12/24 12:15:47;;;;;;;4.60;3.88;;;;;;;;;;4931026;28;20058;-83
2021/12/24 12:18:22;;;;;;;4.65;4.07;;;;;;;;;;4921397;28;20051;-83
2021/12/24 12:20:56;;;;;;;4.50;4.00;;;;;;;;;;4925784;28;20055;-83
2021/12/24 12:26:51;;;;;;;5.45;4.70;;;;;;;;;;4897667;28;20647;-83
2021/12/24 12:29:32;;;;;;;5.30;4.80;;;;;;;;;;4898337;29;20070;-83
2021/12/24 12:32:31;;;;;;;;;;;;;;;;;;;;;
2021/12/24 12:35:09;;;;;;;6.25;5.28;;;;;;;;;;4916841;28;20052;-82
2021/12/24 12:37:50;;;;;;;7.60;5.57;;;;;;;;;;4907819;29;20118;-82
2021/12/24 12:40:16;;;;;;;6.05;5.05;;;;;;;;;;4904326;28;20060;-82
2021/12/24 12:42:56;;;;;;;5.35;4.85;;;;;;;;;;4908840;29;20075;-83
2021/12/24 12:45:25;;;;;;;5.90;5.30;;;;;;;;;;4911434;29;20067;-83
2021/12/24 12:47:59;;;;;;;5.45;4.95;;;;;;;;;;4896910;29;20043;-83
2021/12/24 12:50:28;;;;;;;6.15;5.25;;;;;;;;;;4882005;29;20048;-82
2021/12/24 12:53:14;;;;;;;6.93;5.30;;;;;;;;;;4912601;29;20079;-83
2021/12/24 12:55:41;;;;;;;6.38;5.78;;;;;;;;;;4884500;29;20079;-82
2021/12/24 12:58:40;;;;;;;21.00;19.13;;;;;;;;;;4916311;29;20179;-83
2021/12/24 13:01:07;;;;;;;34.78;31.10;;;;;;;;;;4917812;28;20051;-83
2021/12/24 13:03:33;;;;;;;41.03;36.63;;;;;;;;;;4911054;29;20445;-84
2021/12/24 13:06:19;;;;;;;18.13;16.42;;;;;;;;;;4906348;29;20062;-84
2021/12/24 13:08:46;;;;;;;33.72;29.67;;;;;;;;;;4903309;29;20448;-86
2021/12/24 13:11:44;;;;;;;12.95;11.63;;;;;;;;;;4896182;29;20102;-87
2021/12/24 13:14:28;;;;;;;8.30;7.28;;;;;;;;;;4889145;29;20047;-82
2021/12/24 13:17:21;;;;;;;6.72;6.03;;;;;;;;;;4922358;28;20056;-85
2021/12/24 13:22:28;;;;;;;5.30;4.80;;;;;;;;;;4927322;28;20130;-83
2021/12/24 13:24:57;;;;;;;6.10;4.90;;;;;;;;;;4904200;29;20056;-82
2021/12/24 13:27:28;;;;;;;5.40;4.90;;;;;;;;;;4931878;28;20414;-82
2021/12/24 13:30:30;;;;;;;5.43;4.65;;;;;;;;;;4900038;28;20050;-84
2021/12/24 13:33:00;;;;;;;5.05;4.60;;;;;;;;;;4924475;28;20075;-83
2021/12/24 13:35:31;;;;;;;4.97;4.47;;;;;;;;;;4903217;28;20049;-82
2021/12/24 13:37:57;;;;;;;4.88;4.38;;;;;;;;;;4913274;28;20094;-83
2021/12/24 13:40:38;;;;;;;4.80;4.40;;;;;;;;;;4938065;28;20062;-82
2021/12/24 13:43:06;;;;;;;6.50;4.72;;;;;;;;;;4914630;28;20094;-81
2021/12/24 13:45:35;;;;;;;4.88;4.47;;;;;;;;;;4911718;28;20051;-84
2021/12/24 13:48:15;;;;;;;4.82;4.32;;;;;;;;;;4901182;28;20043;-84
2021/12/24 13:56:31;;;;;;;4.35;3.95;;;;;;;;;;4924022;28;20047;-83
2021/12/24 13:58:59;;;;;;;3.90;3.50;;;;;;;;;;4940380;28;20522;-85
2021/12/24 14:01:29;;;;;;;3.95;3.55;;;;;;;;;;4898923;28;20495;-83
2021/12/24 14:04:04;;;;;;;4.03;3.38;;;;;;;;;;4941303;28;20048;-83
2021/12/24 14:07:15;;;;;;;4.10;3.80;;;;;;;;;;4912363;28;20066;-82
2021/12/24 14:09:45;;;;;;;4.28;3.55;;;;;;;;;;4928731;28;20138;-84
2021/12/24 14:12:22;;;;;;;3.63;3.33;;;;;;;;;;4925071;28;20054;-82
2021/12/24 14:14:55;;;;;;;3.72;3.40;;;;;;;;;;4912278;28;20047;-81
2021/12/24 14:25:14;;;;;;;5.75;5.18;;;;;;;;;;4914971;28;20043;-84
2021/12/24 14:27:50;;;;;;;4.80;4.40;;;;;;;;;;4916898;28;20055;-84
2021/12/24 14:30:17;;;;;;;6.15;5.18;;;;;;;;;;4897737;28;20532;-84
2021/12/24 14:33:23;;;;;;;6.20;5.57;;;;;;;;;;4918916;28;20058;-84
2021/12/24 14:35:52;;;;;;;7.13;6.22;;;;;;;;;;4927675;28;20424;-83
2021/12/24 14:38:23;;;;;;;6.05;5.45;;;;;;;;;;4905054;28;20050;-83
2021/12/24 14:41:06;;;;;;;5.28;4.78;;;;;;;;;;4913548;28;20061;-83
2021/12/24 14:43:55;;;;;;;10.95;9.18;;;;;;;;;;4924761;28;20047;-86
2021/12/24 14:46:28;;;;;;;8.65;7.63;;;;;;;;;;4914645;28;20644;-86
2021/12/24 14:49:03;;;;;;;9.48;6.30;;;;;;;;;;4917833;28;20062;-82
2021/12/24 14:51:29;;;;;;;8.23;6.78;;;;;;;;;;4926098;28;20669;-84
2021/12/24 14:54:08;;;;;;;7.75;5.53;;;;;;;;;;4938331;28;20046;-84
2021/12/24 14:57:01;;;;;;;7.43;6.50;;;;;;;;;;4911479;28;20173;-85
2021/12/24 14:59:27;;;;;;;6.32;5.53;;;;;;;;;;4929639;28;22870;-84
2021/12/24 15:02:04;;;;;;;5.93;5.15;;;;;;;;;;4913641;28;20086;-84
2021/12/24 15:04:30;;;;;;;9.15;6.05;;;;;;;;;;4909720;28;20051;-83
2021/12/24 15:07:23;;;;;;;6.22;5.63;;;;;;;;;;4925561;28;20581;-84
2021/12/24 15:09:49;;;;;;;6.68;5.20;;;;;;;;;;4910929;28;20039;-82
2021/12/24 15:12:22;;;;;;;8.30;6.25;;;;;;;;;;4926221;28;20057;-84
2021/12/24 15:15:08;;;;;;;8.80;7.68;;;;;;;;;;4894911;29;20048;-82
2021/12/24 15:17:57;;;;;;;6.80;5.75;;;;;;;;;;4893881;29;20103;-83
2021/12/24 15:20:27;;;;;;;5.70;5.20;;;;;;;;;;4861850;29;20084;-81
2021/12/24 15:23:26;;;;;;;5.35;4.85;;;;;;;;;;4880225;29;20059;-86
2021/12/24 15:26:44;;;;;;;;;;;;;;;;;;;;;
2021/12/24 15:32:58;;;;;;;5.50;4.57;;;;;;;;;;4791564;29;20481;-83
2021/12/24 15:35:27;;;;;;;5.32;4.43;;;;;;;;;;4798263;29;20042;-83
2021/12/24 15:38:25;;;;;;;6.43;5.75;;;;;;;;;;4805205;29;20144;-86
2021/12/24 15:41:03;;;;;;;6.45;5.40;;;;;;;;;;4800802;29;20064;-84
2021/12/24 15:43:29;;;;;;;8.13;6.47;;;;;;;;;;4819439;29;20500;-84
2021/12/24 15:46:02;;;;;;;12.68;7.88;;;;;;;;;;4877479;29;20139;-83
2021/12/24 15:52:07;;;;;;;8.68;7.30;;;;;;;;;;4862782;29;20056;-80
2021/12/24 15:54:51;;;;;;;9.68;6.50;;;;;;;;;;4925964;28;20058;-84
2021/12/24 15:57:20;;;;;;;6.80;6.10;;;;;;;;;;4917882;28;20050;-84
2021/12/24 15:59:49;;;;;;;7.25;6.13;;;;;;;;;;4914801;28;20491;-85
2021/12/24 16:02:36;;;;;;;;;;;;;;;;;;;;;
2021/12/24 16:09:14;;;;;;;9.00;6.60;;;;;;;;;;4926052;28;20099;-81
2021/12/24 16:12:44;;;;;;;7.97;7.18;;;;;;;;;;4922716;28;20048;-84
2021/12/24 16:18:24;;;;;;;;;;;;;;;;;;;;;
2021/12/24 16:20:55;;;;;;;5.88;4.95;;;;;;;;;;4930627;28;20131;-82
2021/12/24 16:23:51;;;;;;;5.82;4.43;;;;;;;;;;4928763;28;20569;-83
2021/12/24 16:29:19;;;;;;;4.05;3.42;;;;;;;;;;4925484;28;20173;-82
2021/12/24 16:31:48;;;;;;;5.53;3.53;;;;;;;;;;4914755;28;20050;-82
2021/12/24 16:34:43;;;;;;;4.38;2.92;;;;;;;;;;4908399;28;20051;-83
2021/12/24 16:37:35;;;;;;;3.55;2.83;;;;;;;;;;4923703;28;20503;-82
2021/12/24 16:40:07;;;;;;;6.18;3.47;;;;;;;;;;4904065;28;20035;-83
2021/12/24 16:42:46;;;;;;;;;;;;;;;;;;;;;
2021/12/24 16:45:15;;;;;;;5.03;4.50;;;;;;;;;;4926609;28;20105;-84
2021/12/24 16:47:52;;;;;;;8.27;3.40;;;;;;;;;;4925692;28;20426;-82
2021/12/24 16:50:29;;;;;;;7.88;3.03;;;;;;;;;;4902560;28;20072;-82
2021/12/24 16:53:00;;;;;;;7.50;3.17;;;;;;;;;;4916523;28;21377;-81
2021/12/24 16:55:36;;;;;;;10.35;4.07;;;;;;;;;;4932961;28;20085;-83
2021/12/24 16:58:33;;;;;;;9.63;4.20;;;;;;;;;;4912876;28;20050;-85
2021/12/24 17:01:16;;;;;;;;;;;;;;;;;;;;;
2021/12/24 17:03:42;;;;;;;12.88;5.95;;;;;;;;;;4944589;28;20806;-84
2021/12/24 17:06:19;;;;;;;16.48;7.80;;;;;;;;;;4915252;28;20067;-83
2021/12/24 17:08:53;;;;;;;19.42;9.77;;;;;;;;;;4921681;28;20066;-85
2021/12/24 17:11:25;;;;;;;20.10;10.35;;;;;;;;;;4906143;28;20601;-84
2021/12/24 17:13:59;;;;;;;84.13;44.40;;;;;;;;;;4918632;28;20166;-84
2021/12/24 17:16:29;;;;;;;35.97;21.92;;;;;;;;;;4910565;28;20057;-83
2021/12/24 17:19:04;;;;;;;27.40;13.65;;;;;;;;;;4921748;28;20051;-83
2021/12/24 17:21:39;;;;;;;26.73;14.32;;;;;;;;;;4910548;28;20047;-81
2021/12/24 17:24:16;;;;;;;24.27;14.23;;;;;;;;;;4935127;28;20055;-82